Centerdale, Iowa
Current Conditions -  °F | °C
As of 2:52 AM on Wednesday 22 Oct 2014 (Local Time) from KIOW Reporting Station
Clear Clear  
Wind Chill:   Ceiling: Unl
Heat Index:   Visibility: 10mi
Dew Point:   Wind: 5mph
Humidity: 93%   Direction: 130°SE
Pressure: 30.28"   Gusts: NA
Location:  41.5542°N, 91.2913°W
Report Text: KIOW 220752Z AUTO 13004KT 10SM CLR 03/02 A3028 RMK AO2 SLP256 T00330022
Loading
Personal Weather Stations






























Interactive Weather Map
Tropical Storm Tracking
New forecast layout! Learn more

10-Day Weather Forecast

Advertisements
Track Severe Weather on mobile